sensor_id;sensor_type;location;lat;lon;timestamp;P1;durP1;ratioP1;P2;durP2;ratioP2
15858;SDS011;8029;52.202;7.308;2023-04-21T00:00:08;6.57;;;5.63;;
15858;SDS011;8029;52.202;7.308;2023-04-21T00:02:34;10.00;;;4.90;;
15858;SDS011;8029;52.202;7.308;2023-04-21T00:05:06;5.78;;;5.22;;
15858;SDS011;8029;52.202;7.308;2023-04-21T00:07:34;6.47;;;5.35;;
15858;SDS011;8029;52.202;7.308;2023-04-21T00:10:03;6.50;;;5.22;;
15858;SDS011;8029;52.202;7.308;2023-04-21T00:12:29;7.00;;;5.30;;
15858;SDS011;8029;52.202;7.308;2023-04-21T00:14:55;6.05;;;5.13;;
15858;SDS011;8029;52.202;7.308;2023-04-21T00:17:21;10.55;;;6.85;;
15858;SDS011;8029;52.202;7.308;2023-04-21T00:19:47;5.80;;;5.25;;
15858;SDS011;8029;52.202;7.308;2023-04-21T00:22:13;7.45;;;5.25;;
15858;SDS011;8029;52.202;7.308;2023-04-21T00:24:39;7.00;;;5.45;;
15858;SDS011;8029;52.202;7.308;2023-04-21T00:27:05;6.57;;;5.38;;
15858;SDS011;8029;52.202;7.308;2023-04-21T00:29:31;8.93;;;6.60;;
15858;SDS011;8029;52.202;7.308;2023-04-21T00:31:57;7.10;;;6.05;;
15858;SDS011;8029;52.202;7.308;2023-04-21T00:34:23;12.55;;;5.55;;
15858;SDS011;8029;52.202;7.308;2023-04-21T00:36:49;7.00;;;5.53;;
15858;SDS011;8029;52.202;7.308;2023-04-21T00:39:15;6.28;;;5.05;;
15858;SDS011;8029;52.202;7.308;2023-04-21T00:41:41;6.93;;;5.18;;
15858;SDS011;8029;52.202;7.308;2023-04-21T00:44:08;6.60;;;5.93;;
15858;SDS011;8029;52.202;7.308;2023-04-21T00:46:35;7.45;;;6.28;;
15858;SDS011;8029;52.202;7.308;2023-04-21T00:49:03;5.45;;;4.95;;
15858;SDS011;8029;52.202;7.308;2023-04-21T00:51:29;6.07;;;5.35;;
15858;SDS011;8029;52.202;7.308;2023-04-21T00:53:57;6.90;;;5.47;;
15858;SDS011;8029;52.202;7.308;2023-04-21T00:56:23;7.05;;;5.15;;
15858;SDS011;8029;52.202;7.308;2023-04-21T00:58:50;5.60;;;5.10;;
15858;SDS011;8029;52.202;7.308;2023-04-21T01:01:17;8.02;;;6.82;;
15858;SDS011;8029;52.202;7.308;2023-04-21T01:03:43;9.75;;;6.13;;
15858;SDS011;8029;52.202;7.308;2023-04-21T01:06:11;7.10;;;5.93;;
15858;SDS011;8029;52.202;7.308;2023-04-21T01:08:37;7.00;;;6.03;;
15858;SDS011;8029;52.202;7.308;2023-04-21T01:11:10;6.95;;;4.85;;
15858;SDS011;8029;52.202;7.308;2023-04-21T01:13:36;9.93;;;5.80;;
15858;SDS011;8029;52.202;7.308;2023-04-21T01:16:02;7.22;;;5.65;;
15858;SDS011;8029;52.202;7.308;2023-04-21T01:18:28;6.65;;;5.93;;
15858;SDS011;8029;52.202;7.308;2023-04-21T01:20:54;6.00;;;5.40;;
15858;SDS011;8029;52.202;7.308;2023-04-21T01:23:22;6.53;;;5.93;;
15858;SDS011;8029;52.202;7.308;2023-04-21T01:25:49;7.03;;;6.32;;
15858;SDS011;8029;52.202;7.308;2023-04-21T01:28:20;7.07;;;6.07;;
15858;SDS011;8029;52.202;7.308;2023-04-21T01:30:45;7.60;;;5.60;;
15858;SDS011;8029;52.202;7.308;2023-04-21T01:33:11;6.85;;;5.55;;
15858;SDS011;8029;52.202;7.308;2023-04-21T01:35:37;7.18;;;6.00;;
15858;SDS011;8029;52.202;7.308;2023-04-21T01:38:04;7.10;;;6.03;;
15858;SDS011;8029;52.202;7.308;2023-04-21T01:40:30;7.80;;;6.15;;
15858;SDS011;8029;52.202;7.308;2023-04-21T01:42:56;5.78;;;5.28;;
15858;SDS011;8029;52.202;7.308;2023-04-21T01:45:23;6.97;;;6.30;;
15858;SDS011;8029;52.202;7.308;2023-04-21T01:47:49;5.95;;;5.35;;
15858;SDS011;8029;52.202;7.308;2023-04-21T01:50:15;8.13;;;6.65;;
15858;SDS011;8029;52.202;7.308;2023-04-21T01:52:42;9.93;;;6.93;;
15858;SDS011;8029;52.202;7.308;2023-04-21T01:55:08;7.63;;;6.30;;
15858;SDS011;8029;52.202;7.308;2023-04-21T01:57:34;7.63;;;6.82;;
15858;SDS011;8029;52.202;7.308;2023-04-21T02:00:00;9.38;;;5.85;;
15858;SDS011;8029;52.202;7.308;2023-04-21T02:02:26;13.82;;;6.70;;
15858;SDS011;8029;52.202;7.308;2023-04-21T02:04:52;7.28;;;5.72;;
15858;SDS011;8029;52.202;7.308;2023-04-21T02:07:19;7.82;;;6.28;;
15858;SDS011;8029;52.202;7.308;2023-04-21T02:09:45;6.20;;;5.15;;
15858;SDS011;8029;52.202;7.308;2023-04-21T02:12:11;6.68;;;5.97;;
15858;SDS011;8029;52.202;7.308;2023-04-21T02:14:37;11.63;;;7.03;;
15858;SDS011;8029;52.202;7.308;2023-04-21T02:17:03;8.93;;;6.63;;
15858;SDS011;8029;52.202;7.308;2023-04-21T02:19:29;7.38;;;6.60;;
15858;SDS011;8029;52.202;7.308;2023-04-21T02:21:55;7.70;;;6.30;;
15858;SDS011;8029;52.202;7.308;2023-04-21T02:24:21;7.22;;;6.03;;
15858;SDS011;8029;52.202;7.308;2023-04-21T02:26:47;10.15;;;6.03;;
15858;SDS011;8029;52.202;7.308;2023-04-21T02:29:13;6.30;;;5.70;;
15858;SDS011;8029;52.202;7.308;2023-04-21T02:31:39;12.95;;;6.28;;
15858;SDS011;8029;52.202;7.308;2023-04-21T02:34:05;5.97;;;5.30;;
15858;SDS011;8029;52.202;7.308;2023-04-21T02:36:31;6.63;;;5.25;;
15858;SDS011;8029;52.202;7.308;2023-04-21T02:38:57;6.88;;;6.18;;
15858;SDS011;8029;52.202;7.308;2023-04-21T02:41:23;6.93;;;5.93;;
15858;SDS011;8029;52.202;7.308;2023-04-21T02:43:49;11.45;;;7.22;;
15858;SDS011;8029;52.202;7.308;2023-04-21T02:46:15;10.02;;;7.18;;
15858;SDS011;8029;52.202;7.308;2023-04-21T02:48:41;6.50;;;5.88;;
15858;SDS011;8029;52.202;7.308;2023-04-21T02:51:14;5.88;;;5.38;;
15858;SDS011;8029;52.202;7.308;2023-04-21T02:53:40;8.68;;;6.38;;
15858;SDS011;8029;52.202;7.308;2023-04-21T02:56:06;7.28;;;5.82;;
15858;SDS011;8029;52.202;7.308;2023-04-21T02:58:33;7.90;;;6.78;;
15858;SDS011;8029;52.202;7.308;2023-04-21T03:01:00;5.53;;;4.95;;
15858;SDS011;8029;52.202;7.308;2023-04-21T03:03:26;7.53;;;6.10;;
15858;SDS011;8029;52.202;7.308;2023-04-21T03:05:56;11.63;;;6.47;;
15858;SDS011;8029;52.202;7.308;2023-04-21T03:08:22;7.28;;;6.53;;
15858;SDS011;8029;52.202;7.308;2023-04-21T03:10:48;8.98;;;6.53;;
15858;SDS011;8029;52.202;7.308;2023-04-21T03:13:14;7.38;;;5.53;;
15858;SDS011;8029;52.202;7.308;2023-04-21T03:15:41;6.30;;;5.70;;
15858;SDS011;8029;52.202;7.308;2023-04-21T03:18:07;8.27;;;6.40;;
15858;SDS011;8029;52.202;7.308;2023-04-21T03:20:33;8.27;;;6.25;;
15858;SDS011;8029;52.202;7.308;2023-04-21T03:22:59;6.78;;;6.07;;
15858;SDS011;8029;52.202;7.308;2023-04-21T03:25:25;7.22;;;6.20;;
15858;SDS011;8029;52.202;7.308;2023-04-21T03:27:54;7.38;;;6.70;;
15858;SDS011;8029;52.202;7.308;2023-04-21T03:30:20;8.68;;;6.47;;
15858;SDS011;8029;52.202;7.308;2023-04-21T03:32:46;10.63;;;6.93;;
15858;SDS011;8029;52.202;7.308;2023-04-21T03:35:12;9.70;;;6.90;;
15858;SDS011;8029;52.202;7.308;2023-04-21T03:37:38;9.02;;;7.00;;
15858;SDS011;8029;52.202;7.308;2023-04-21T03:40:04;8.07;;;6.85;;
15858;SDS011;8029;52.202;7.308;2023-04-21T03:42:31;8.55;;;6.40;;
15858;SDS011;8029;52.202;7.308;2023-04-21T03:45:04;8.45;;;7.25;;
15858;SDS011;8029;52.202;7.308;2023-04-21T03:47:30;8.80;;;6.97;;
15858;SDS011;8029;52.202;7.308;2023-04-21T03:49:56;7.72;;;5.80;;
15858;SDS011;8029;52.202;7.308;2023-04-21T03:52:22;6.85;;;6.15;;
15858;SDS011;8029;52.202;7.308;2023-04-21T03:54:48;6.60;;;5.75;;
15858;SDS011;8029;52.202;7.308;2023-04-21T03:57:14;9.23;;;6.18;;
15858;SDS011;8029;52.202;7.308;2023-04-21T03:59:40;7.32;;;6.55;;
15858;SDS011;8029;52.202;7.308;2023-04-21T04:02:06;6.93;;;6.20;;
15858;SDS011;8029;52.202;7.308;2023-04-21T04:04:32;6.88;;;6.28;;
15858;SDS011;8029;52.202;7.308;2023-04-21T04:06:58;6.93;;;6.22;;
15858;SDS011;8029;52.202;7.308;2023-04-21T04:09:24;7.75;;;6.95;;
15858;SDS011;8029;52.202;7.308;2023-04-21T04:11:51;6.88;;;6.15;;
15858;SDS011;8029;52.202;7.308;2023-04-21T04:14:17;6.82;;;5.85;;
15858;SDS011;8029;52.202;7.308;2023-04-21T04:16:43;7.85;;;6.65;;
15858;SDS011;8029;52.202;7.308;2023-04-21T04:19:09;6.43;;;5.80;;
15858;SDS011;8029;52.202;7.308;2023-04-21T04:21:35;8.45;;;6.00;;
15858;SDS011;8029;52.202;7.308;2023-04-21T04:24:01;12.13;;;7.47;;
15858;SDS011;8029;52.202;7.308;2023-04-21T04:26:29;6.80;;;6.10;;
15858;SDS011;8029;52.202;7.308;2023-04-21T04:28:57;7.53;;;6.65;;
15858;SDS011;8029;52.202;7.308;2023-04-21T04:31:24;12.73;;;6.88;;
15858;SDS011;8029;52.202;7.308;2023-04-21T04:33:50;8.68;;;6.93;;
15858;SDS011;8029;52.202;7.308;2023-04-21T04:36:16;8.65;;;7.13;;
15858;SDS011;8029;52.202;7.308;2023-04-21T04:38:42;7.68;;;6.88;;
15858;SDS011;8029;52.202;7.308;2023-04-21T04:41:09;6.68;;;6.07;;
15858;SDS011;8029;52.202;7.308;2023-04-21T04:43:36;8.85;;;6.38;;
15858;SDS011;8029;52.202;7.308;2023-04-21T04:46:06;7.18;;;6.30;;
15858;SDS011;8029;52.202;7.308;2023-04-21T04:48:36;21.77;;;6.60;;
15858;SDS011;8029;52.202;7.308;2023-04-21T04:51:02;9.18;;;6.63;;
15858;SDS011;8029;52.202;7.308;2023-04-21T04:53:28;10.32;;;7.07;;
15858;SDS011;8029;52.202;7.308;2023-04-21T04:55:55;10.73;;;8.52;;
15858;SDS011;8029;52.202;7.308;2023-04-21T04:58:22;7.60;;;6.70;;
15858;SDS011;8029;52.202;7.308;2023-04-21T05:00:48;9.10;;;6.13;;
15858;SDS011;8029;52.202;7.308;2023-04-21T05:03:14;12.18;;;6.72;;
15858;SDS011;8029;52.202;7.308;2023-04-21T05:05:40;7.97;;;6.88;;
15858;SDS011;8029;52.202;7.308;2023-04-21T05:08:06;8.73;;;6.25;;
15858;SDS011;8029;52.202;7.308;2023-04-21T05:10:32;9.73;;;8.18;;
15858;SDS011;8029;52.202;7.308;2023-04-21T05:12:58;8.32;;;6.07;;
15858;SDS011;8029;52.202;7.308;2023-04-21T05:15:24;7.40;;;6.65;;
15858;SDS011;8029;52.202;7.308;2023-04-21T05:17:50;7.80;;;6.20;;
15858;SDS011;8029;52.202;7.308;2023-04-21T05:20:16;9.88;;;6.97;;
15858;SDS011;8029;52.202;7.308;2023-04-21T05:22:42;8.15;;;7.32;;
15858;SDS011;8029;52.202;7.308;2023-04-21T05:25:09;7.05;;;6.28;;
15858;SDS011;8029;52.202;7.308;2023-04-21T05:27:39;7.03;;;6.43;;
15858;SDS011;8029;52.202;7.308;2023-04-21T05:30:05;7.13;;;6.38;;
15858;SDS011;8029;52.202;7.308;2023-04-21T05:32:31;13.73;;;5.63;;
15858;SDS011;8029;52.202;7.308;2023-04-21T05:34:57;9.25;;;6.68;;
15858;SDS011;8029;52.202;7.308;2023-04-21T05:37:24;5.55;;;5.05;;
15858;SDS011;8029;52.202;7.308;2023-04-21T05:39:50;6.40;;;5.75;;
15858;SDS011;8029;52.202;7.308;2023-04-21T05:42:16;9.75;;;6.50;;
15858;SDS011;8029;52.202;7.308;2023-04-21T05:44:42;9.82;;;7.13;;
15858;SDS011;8029;52.202;7.308;2023-04-21T05:47:08;7.82;;;6.47;;
15858;SDS011;8029;52.202;7.308;2023-04-21T05:49:34;6.45;;;5.85;;
15858;SDS011;8029;52.202;7.308;2023-04-21T05:52:00;5.88;;;5.30;;
15858;SDS011;8029;52.202;7.308;2023-04-21T05:54:26;7.95;;;6.80;;
15858;SDS011;8029;52.202;7.308;2023-04-21T05:56:52;6.68;;;5.97;;
15858;SDS011;8029;52.202;7.308;2023-04-21T05:59:18;12.40;;;6.35;;
15858;SDS011;8029;52.202;7.308;2023-04-21T06:01:44;5.72;;;5.22;;
15858;SDS011;8029;52.202;7.308;2023-04-21T06:04:10;6.50;;;5.78;;
15858;SDS011;8029;52.202;7.308;2023-04-21T06:06:36;7.38;;;6.00;;
15858;SDS011;8029;52.202;7.308;2023-04-21T06:09:02;12.60;;;6.32;;
15858;SDS011;8029;52.202;7.308;2023-04-21T06:11:29;8.55;;;7.00;;
15858;SDS011;8029;52.202;7.308;2023-04-21T06:13:55;8.75;;;6.45;;
15858;SDS011;8029;52.202;7.308;2023-04-21T06:16:23;8.52;;;6.07;;
15858;SDS011;8029;52.202;7.308;2023-04-21T06:18:49;6.28;;;5.65;;
15858;SDS011;8029;52.202;7.308;2023-04-21T06:21:15;10.70;;;6.40;;
15858;SDS011;8029;52.202;7.308;2023-04-21T06:23:41;5.88;;;5.03;;
15858;SDS011;8029;52.202;7.308;2023-04-21T06:26:07;12.38;;;7.32;;
15858;SDS011;8029;52.202;7.308;2023-04-21T06:28:33;9.15;;;6.20;;
15858;SDS011;8029;52.202;7.308;2023-04-21T06:31:00;9.95;;;7.25;;
15858;SDS011;8029;52.202;7.308;2023-04-21T06:33:26;7.40;;;6.70;;
15858;SDS011;8029;52.202;7.308;2023-04-21T06:35:52;8.75;;;6.38;;
15858;SDS011;8029;52.202;7.308;2023-04-21T06:38:19;6.28;;;5.68;;
15858;SDS011;8029;52.202;7.308;2023-04-21T06:40:45;19.55;;;6.60;;
15858;SDS011;8029;52.202;7.308;2023-04-21T06:43:11;7.28;;;5.80;;
15858;SDS011;8029;52.202;7.308;2023-04-21T06:45:37;8.63;;;6.75;;
15858;SDS011;8029;52.202;7.308;2023-04-21T06:48:03;6.55;;;5.18;;
15858;SDS011;8029;52.202;7.308;2023-04-21T06:50:29;11.57;;;6.80;;
15858;SDS011;8029;52.202;7.308;2023-04-21T06:52:55;5.85;;;5.10;;
15858;SDS011;8029;52.202;7.308;2023-04-21T06:55:21;5.72;;;5.20;;
15858;SDS011;8029;52.202;7.308;2023-04-21T06:57:47;8.65;;;6.18;;
15858;SDS011;8029;52.202;7.308;2023-04-21T07:00:13;6.28;;;5.32;;
15858;SDS011;8029;52.202;7.308;2023-04-21T07:02:39;6.47;;;5.82;;
15858;SDS011;8029;52.202;7.308;2023-04-21T07:05:08;8.85;;;6.43;;
15858;SDS011;8029;52.202;7.308;2023-04-21T07:07:34;10.23;;;6.82;;
15858;SDS011;8029;52.202;7.308;2023-04-21T07:10:00;6.43;;;5.82;;
15858;SDS011;8029;52.202;7.308;2023-04-21T07:12:26;9.27;;;5.95;;
15858;SDS011;8029;52.202;7.308;2023-04-21T07:14:52;12.32;;;6.20;;
15858;SDS011;8029;52.202;7.308;2023-04-21T07:17:18;9.38;;;5.95;;
15858;SDS011;8029;52.202;7.308;2023-04-21T07:19:44;9.00;;;6.40;;
15858;SDS011;8029;52.202;7.308;2023-04-21T07:22:10;8.20;;;5.78;;
15858;SDS011;8029;52.202;7.308;2023-04-21T07:24:36;12.20;;;6.13;;
15858;SDS011;8029;52.202;7.308;2023-04-21T07:27:03;7.90;;;6.07;;
15858;SDS011;8029;52.202;7.308;2023-04-21T07:29:29;10.07;;;6.63;;
15858;SDS011;8029;52.202;7.308;2023-04-21T07:31:55;7.85;;;6.18;;
15858;SDS011;8029;52.202;7.308;2023-04-21T07:34:22;6.88;;;5.30;;
15858;SDS011;8029;52.202;7.308;2023-04-21T07:36:49;9.60;;;5.78;;
15858;SDS011;8029;52.202;7.308;2023-04-21T07:39:15;6.32;;;5.72;;
15858;SDS011;8029;52.202;7.308;2023-04-21T07:41:41;7.15;;;5.03;;
15858;SDS011;8029;52.202;7.308;2023-04-21T07:44:07;7.32;;;6.18;;
15858;SDS011;8029;52.202;7.308;2023-04-21T07:46:33;9.35;;;7.25;;
15858;SDS011;8029;52.202;7.308;2023-04-21T07:48:59;7.35;;;6.10;;
15858;SDS011;8029;52.202;7.308;2023-04-21T07:51:25;11.45;;;6.93;;
15858;SDS011;8029;52.202;7.308;2023-04-21T07:53:52;8.10;;;6.65;;
15858;SDS011;8029;52.202;7.308;2023-04-21T07:56:18;8.38;;;6.50;;
15858;SDS011;8029;52.202;7.308;2023-04-21T07:58:44;10.05;;;6.00;;
15858;SDS011;8029;52.202;7.308;2023-04-21T08:01:10;8.20;;;6.85;;
15858;SDS011;8029;52.202;7.308;2023-04-21T08:03:36;6.38;;;5.32;;
15858;SDS011;8029;52.202;7.308;2023-04-21T08:06:02;10.07;;;5.82;;
15858;SDS011;8029;52.202;7.308;2023-04-21T08:08:28;8.77;;;6.03;;
15858;SDS011;8029;52.202;7.308;2023-04-21T08:10:54;7.10;;;6.38;;
15858;SDS011;8029;52.202;7.308;2023-04-21T08:13:20;10.35;;;6.78;;
15858;SDS011;8029;52.202;7.308;2023-04-21T08:15:49;6.07;;;5.47;;
15858;SDS011;8029;52.202;7.308;2023-04-21T08:18:15;7.47;;;6.43;;
15858;SDS011;8029;52.202;7.308;2023-04-21T08:20:43;8.63;;;5.93;;
15858;SDS011;8029;52.202;7.308;2023-04-21T08:23:09;5.97;;;5.38;;
15858;SDS011;8029;52.202;7.308;2023-04-21T08:25:35;6.40;;;5.75;;
15858;SDS011;8029;52.202;7.308;2023-04-21T08:28:01;11.43;;;6.75;;
15858;SDS011;8029;52.202;7.308;2023-04-21T08:30:27;6.75;;;6.05;;
15858;SDS011;8029;52.202;7.308;2023-04-21T08:32:53;9.57;;;6.53;;
15858;SDS011;8029;52.202;7.308;2023-04-21T08:35:19;8.95;;;5.57;;
15858;SDS011;8029;52.202;7.308;2023-04-21T08:37:45;8.10;;;6.15;;
15858;SDS011;8029;52.202;7.308;2023-04-21T08:40:11;11.60;;;6.75;;
15858;SDS011;8029;52.202;7.308;2023-04-21T08:42:37;11.23;;;8.10;;
15858;SDS011;8029;52.202;7.308;2023-04-21T08:45:04;7.10;;;6.38;;
15858;SDS011;8029;52.202;7.308;2023-04-21T08:47:31;7.22;;;5.93;;
15858;SDS011;8029;52.202;7.308;2023-04-21T08:49:57;19.92;;;6.53;;
15858;SDS011;8029;52.202;7.308;2023-04-21T08:52:23;11.57;;;6.03;;
15858;SDS011;8029;52.202;7.308;2023-04-21T08:54:49;6.00;;;5.40;;
15858;SDS011;8029;52.202;7.308;2023-04-21T08:57:17;6.82;;;6.22;;
15858;SDS011;8029;52.202;7.308;2023-04-21T08:59:44;7.43;;;5.63;;
15858;SDS011;8029;52.202;7.308;2023-04-21T09:02:17;8.68;;;5.32;;
15858;SDS011;8029;52.202;7.308;2023-04-21T09:04:44;7.57;;;5.35;;
15858;SDS011;8029;52.202;7.308;2023-04-21T09:07:10;7.97;;;6.47;;
15858;SDS011;8029;52.202;7.308;2023-04-21T09:12:18;13.98;;;7.00;;
15858;SDS011;8029;52.202;7.308;2023-04-21T09:14:44;6.85;;;6.05;;
15858;SDS011;8029;52.202;7.308;2023-04-21T09:17:10;6.88;;;5.13;;
15858;SDS011;8029;52.202;7.308;2023-04-21T09:19:37;5.72;;;5.22;;
15858;SDS011;8029;52.202;7.308;2023-04-21T09:22:03;7.45;;;6.22;;
15858;SDS011;8029;52.202;7.308;2023-04-21T09:24:29;23.98;;;6.15;;
15858;SDS011;8029;52.202;7.308;2023-04-21T09:26:55;7.95;;;6.05;;
15858;SDS011;8029;52.202;7.308;2023-04-21T09:29:21;5.82;;;5.25;;
15858;SDS011;8029;52.202;7.308;2023-04-21T09:31:48;5.65;;;5.03;;
15858;SDS011;8029;52.202;7.308;2023-04-21T09:34:17;6.93;;;5.45;;
15858;SDS011;8029;52.202;7.308;2023-04-21T09:36:43;10.18;;;6.25;;
15858;SDS011;8029;52.202;7.308;2023-04-21T09:39:10;8.77;;;5.80;;
15858;SDS011;8029;52.202;7.308;2023-04-21T09:41:36;7.32;;;5.72;;
15858;SDS011;8029;52.202;7.308;2023-04-21T09:44:02;11.85;;;6.72;;
15858;SDS011;8029;52.202;7.308;2023-04-21T09:46:31;7.63;;;6.90;;
15858;SDS011;8029;52.202;7.308;2023-04-21T09:48:59;10.43;;;5.72;;
15858;SDS011;8029;52.202;7.308;2023-04-21T09:51:25;9.55;;;6.22;;
15858;SDS011;8029;52.202;7.308;2023-04-21T09:53:52;9.18;;;5.88;;
15858;SDS011;8029;52.202;7.308;2023-04-21T09:56:20;9.48;;;6.88;;
15858;SDS011;8029;52.202;7.308;2023-04-21T09:58:46;17.90;;;6.53;;
15858;SDS011;8029;52.202;7.308;2023-04-21T10:01:13;5.47;;;4.85;;
15858;SDS011;8029;52.202;7.308;2023-04-21T10:03:40;6.97;;;6.03;;
15858;SDS011;8029;52.202;7.308;2023-04-21T10:06:06;6.28;;;5.28;;
15858;SDS011;8029;52.202;7.308;2023-04-21T10:08:32;6.43;;;5.68;;
15858;SDS011;8029;52.202;7.308;2023-04-21T10:10:59;16.20;;;5.55;;
15858;SDS011;8029;52.202;7.308;2023-04-21T10:13:25;7.88;;;5.43;;
15858;SDS011;8029;52.202;7.308;2023-04-21T10:16:05;8.15;;;6.30;;
15858;SDS011;8029;52.202;7.308;2023-04-21T10:18:33;11.10;;;6.97;;
15858;SDS011;8029;52.202;7.308;2023-04-21T10:21:01;14.88;;;6.28;;
15858;SDS011;8029;52.202;7.308;2023-04-21T10:25:53;9.88;;;6.85;;
15858;SDS011;8029;52.202;7.308;2023-04-21T10:28:37;13.57;;;7.13;;
15858;SDS011;8029;52.202;7.308;2023-04-21T10:34:14;7.10;;;4.93;;
15858;SDS011;8029;52.202;7.308;2023-04-21T10:39:08;5.60;;;5.05;;
15858;SDS011;8029;52.202;7.308;2023-04-21T10:41:40;7.45;;;5.40;;
15858;SDS011;8029;52.202;7.308;2023-04-21T10:46:37;12.43;;;5.72;;
15858;SDS011;8029;52.202;7.308;2023-04-21T10:49:05;6.65;;;5.20;;
15858;SDS011;8029;52.202;7.308;2023-04-21T10:51:31;12.75;;;5.90;;
15858;SDS011;8029;52.202;7.308;2023-04-21T10:53:57;26.95;;;5.95;;
15858;SDS011;8029;52.202;7.308;2023-04-21T10:56:23;10.77;;;6.70;;
15858;SDS011;8029;52.202;7.308;2023-04-21T10:58:50;6.32;;;5.22;;
15858;SDS011;8029;52.202;7.308;2023-04-21T11:01:17;6.82;;;5.57;;
15858;SDS011;8029;52.202;7.308;2023-04-21T11:03:43;9.27;;;6.03;;
15858;SDS011;8029;52.202;7.308;2023-04-21T11:06:13;7.47;;;5.22;;
15858;SDS011;8029;52.202;7.308;2023-04-21T11:08:58;7.28;;;5.18;;
15858;SDS011;8029;52.202;7.308;2023-04-21T11:11:24;7.75;;;5.60;;
15858;SDS011;8029;52.202;7.308;2023-04-21T11:13:51;9.48;;;5.22;;
15858;SDS011;8029;52.202;7.308;2023-04-21T11:16:18;11.15;;;5.97;;
15858;SDS011;8029;52.202;7.308;2023-04-21T11:18:45;9.38;;;4.82;;
15858;SDS011;8029;52.202;7.308;2023-04-21T11:21:17;5.97;;;5.15;;
15858;SDS011;8029;52.202;7.308;2023-04-21T11:23:47;6.57;;;5.50;;
15858;SDS011;8029;52.202;7.308;2023-04-21T11:26:13;10.52;;;4.93;;
15858;SDS011;8029;52.202;7.308;2023-04-21T11:28:40;6.90;;;5.80;;
15858;SDS011;8029;52.202;7.308;2023-04-21T11:31:06;6.40;;;5.40;;
15858;SDS011;8029;52.202;7.308;2023-04-21T11:33:35;6.90;;;5.00;;
15858;SDS011;8029;52.202;7.308;2023-04-21T11:36:05;13.32;;;6.05;;
15858;SDS011;8029;52.202;7.308;2023-04-21T11:38:38;5.80;;;4.30;;
15858;SDS011;8029;52.202;7.308;2023-04-21T11:41:05;4.32;;;3.85;;
15858;SDS011;8029;52.202;7.308;2023-04-21T11:43:31;3.90;;;3.60;;
15858;SDS011;8029;52.202;7.308;2023-04-21T11:46:16;5.15;;;4.55;;
15858;SDS011;8029;52.202;7.308;2023-04-21T11:48:43;6.43;;;5.25;;
15858;SDS011;8029;52.202;7.308;2023-04-21T11:51:13;6.43;;;4.25;;
15858;SDS011;8029;52.202;7.308;2023-04-21T11:53:39;5.22;;;3.97;;
15858;SDS011;8029;52.202;7.308;2023-04-21T11:56:05;6.15;;;4.60;;
15858;SDS011;8029;52.202;7.308;2023-04-21T11:58:31;5.47;;;4.22;;
15858;SDS011;8029;52.202;7.308;2023-04-21T12:00:57;10.27;;;5.70;;
15858;SDS011;8029;52.202;7.308;2023-04-21T12:03:24;5.35;;;4.20;;
15858;SDS011;8029;52.202;7.308;2023-04-21T12:05:54;8.07;;;4.45;;
15858;SDS011;8029;52.202;7.308;2023-04-21T12:08:21;13.27;;;4.68;;
15858;SDS011;8029;52.202;7.308;2023-04-21T12:10:47;7.68;;;4.90;;
15858;SDS011;8029;52.202;7.308;2023-04-21T12:13:22;7.00;;;4.40;;
15858;SDS011;8029;52.202;7.308;2023-04-21T12:15:48;6.32;;;5.18;;
15858;SDS011;8029;52.202;7.308;2023-04-21T12:18:14;5.53;;;4.78;;
15858;SDS011;8029;52.202;7.308;2023-04-21T12:20:50;4.78;;;3.90;;
15858;SDS011;8029;52.202;7.308;2023-04-21T12:23:17;11.70;;;5.15;;
15858;SDS011;8029;52.202;7.308;2023-04-21T12:25:43;7.15;;;4.47;;
15858;SDS011;8029;52.202;7.308;2023-04-21T12:28:11;5.15;;;4.20;;
15858;SDS011;8029;52.202;7.308;2023-04-21T12:30:37;5.18;;;3.65;;
15858;SDS011;8029;52.202;7.308;2023-04-21T12:33:03;13.13;;;4.28;;
15858;SDS011;8029;52.202;7.308;2023-04-21T12:35:29;5.32;;;3.85;;
15858;SDS011;8029;52.202;7.308;2023-04-21T12:37:57;4.80;;;4.03;;
15858;SDS011;8029;52.202;7.308;2023-04-21T12:40:23;5.88;;;4.05;;
15858;SDS011;8029;52.202;7.308;2023-04-21T12:42:49;7.00;;;5.45;;
15858;SDS011;8029;52.202;7.308;2023-04-21T12:45:15;5.40;;;4.05;;
15858;SDS011;8029;52.202;7.308;2023-04-21T12:47:41;6.00;;;4.47;;
15858;SDS011;8029;52.202;7.308;2023-04-21T12:50:07;5.45;;;3.70;;
15858;SDS011;8029;52.202;7.308;2023-04-21T12:52:35;4.38;;;3.85;;
15858;SDS011;8029;52.202;7.308;2023-04-21T12:55:01;3.83;;;3.40;;
15858;SDS011;8029;52.202;7.308;2023-04-21T12:57:27;4.93;;;3.95;;
15858;SDS011;8029;52.202;7.308;2023-04-21T12:59:53;6.95;;;4.43;;
15858;SDS011;8029;52.202;7.308;2023-04-21T13:02:19;3.70;;;2.95;;
15858;SDS011;8029;52.202;7.308;2023-04-21T13:04:46;4.75;;;3.58;;
15858;SDS011;8029;52.202;7.308;2023-04-21T13:07:11;5.75;;;3.75;;
15858;SDS011;8029;52.202;7.308;2023-04-21T13:09:39;3.83;;;2.92;;
15858;SDS011;8029;52.202;7.308;2023-04-21T13:12:05;6.57;;;3.42;;
15858;SDS011;8029;52.202;7.308;2023-04-21T13:14:32;5.78;;;3.35;;
15858;SDS011;8029;52.202;7.308;2023-04-21T13:16:58;9.20;;;4.13;;
15858;SDS011;8029;52.202;7.308;2023-04-21T13:19:24;6.60;;;3.72;;
15858;SDS011;8029;52.202;7.308;2023-04-21T13:21:50;5.55;;;3.60;;
15858;SDS011;8029;52.202;7.308;2023-04-21T13:24:16;5.10;;;3.10;;
15858;SDS011;8029;52.202;7.308;2023-04-21T13:26:42;4.95;;;3.47;;
15858;SDS011;8029;52.202;7.308;2023-04-21T13:29:08;2.75;;;2.30;;
15858;SDS011;8029;52.202;7.308;2023-04-21T13:31:34;2.30;;;2.10;;
15858;SDS011;8029;52.202;7.308;2023-04-21T13:34:00;6.80;;;2.35;;
15858;SDS011;8029;52.202;7.308;2023-04-21T13:36:27;4.43;;;2.95;;
15858;SDS011;8029;52.202;7.308;2023-04-21T13:38:53;5.68;;;3.55;;
15858;SDS011;8029;52.202;7.308;2023-04-21T13:41:20;5.03;;;3.55;;
15858;SDS011;8029;52.202;7.308;2023-04-21T13:43:46;2.85;;;2.47;;
15858;SDS011;8029;52.202;7.308;2023-04-21T13:46:12;2.67;;;2.15;;
15858;SDS011;8029;52.202;7.308;2023-04-21T13:48:38;3.65;;;3.15;;
15858;SDS011;8029;52.202;7.308;2023-04-21T13:51:04;9.82;;;5.95;;
15858;SDS011;8029;52.202;7.308;2023-04-21T13:53:30;4.95;;;2.58;;
15858;SDS011;8029;52.202;7.308;2023-04-21T13:55:56;2.00;;;1.83;;
15858;SDS011;8029;52.202;7.308;2023-04-21T13:58:23;4.43;;;2.00;;
15858;SDS011;8029;52.202;7.308;2023-04-21T14:00:49;2.35;;;2.13;;
15858;SDS011;8029;52.202;7.308;2023-04-21T14:03:15;5.78;;;2.55;;
15858;SDS011;8029;52.202;7.308;2023-04-21T14:05:41;4.18;;;2.55;;
15858;SDS011;8029;52.202;7.308;2023-04-21T14:08:07;3.53;;;2.80;;
15858;SDS011;8029;52.202;7.308;2023-04-21T14:10:33;3.72;;;2.20;;
15858;SDS011;8029;52.202;7.308;2023-04-21T14:12:59;2.03;;;1.63;;
15858;SDS011;8029;52.202;7.308;2023-04-21T14:15:25;4.20;;;2.55;;
15858;SDS011;8029;52.202;7.308;2023-04-21T14:17:51;5.63;;;3.00;;
15858;SDS011;8029;52.202;7.308;2023-04-21T14:20:18;5.75;;;2.22;;
15858;SDS011;8029;52.202;7.308;2023-04-21T14:22:44;3.03;;;2.63;;
15858;SDS011;8029;52.202;7.308;2023-04-21T14:25:10;2.47;;;2.13;;
15858;SDS011;8029;52.202;7.308;2023-04-21T14:27:36;2.80;;;2.35;;
15858;SDS011;8029;52.202;7.308;2023-04-21T14:30:02;3.28;;;1.98;;
15858;SDS011;8029;52.202;7.308;2023-04-21T14:32:28;11.07;;;2.28;;
15858;SDS011;8029;52.202;7.308;2023-04-21T14:34:54;4.63;;;2.22;;
15858;SDS011;8029;52.202;7.308;2023-04-21T14:37:22;5.72;;;2.28;;
15858;SDS011;8029;52.202;7.308;2023-04-21T14:39:49;3.70;;;1.60;;
15858;SDS011;8029;52.202;7.308;2023-04-21T14:42:15;2.45;;;1.70;;
15858;SDS011;8029;52.202;7.308;2023-04-21T14:44:42;2.35;;;2.05;;
15858;SDS011;8029;52.202;7.308;2023-04-21T14:47:08;7.55;;;1.48;;
15858;SDS011;8029;52.202;7.308;2023-04-21T14:49:34;3.45;;;2.50;;
15858;SDS011;8029;52.202;7.308;2023-04-21T14:52:01;1.83;;;1.73;;
15858;SDS011;8029;52.202;7.308;2023-04-21T14:54:27;4.55;;;1.80;;
15858;SDS011;8029;52.202;7.308;2023-04-21T14:56:53;2.65;;;1.80;;
15858;SDS011;8029;52.202;7.308;2023-04-21T14:59:21;3.92;;;2.55;;
15858;SDS011;8029;52.202;7.308;2023-04-21T15:01:47;3.60;;;2.17;;
15858;SDS011;8029;52.202;7.308;2023-04-21T15:04:13;3.55;;;2.20;;
15858;SDS011;8029;52.202;7.308;2023-04-21T15:06:39;3.03;;;1.90;;
15858;SDS011;8029;52.202;7.308;2023-04-21T15:09:05;3.08;;;2.25;;